Time;durP1;ratioP1;P1;durP2;ratioP2;P2;SDS_P1;SDS_P2;PMS_P1;PMS_P2;Temp;Humidity;BMP_temperature;BMP_pressure;BME280_temperature;BME280_humidity;BME280_pressure;Samples;Min_cycle;Max_cycle;Signal;HPM_P1;HPM_P2
2022/08/17 00:00:21;;;;;;;;;;;;;;;19.24;80.08;99955.09;5034195;28;1196;-87
2022/08/17 00:02:58;;;;;;;;;;;;;;;19.24;80.55;99955.09;5025983;28;1771;-86
2022/08/17 00:05:23;;;;;;;;;;;;;;;19.35;81.28;99939.56;5034521;28;1508;-86
2022/08/17 00:07:48;;;;;;;;;;;;;;;19.46;80.12;99950.97;5046183;28;1700;-86
2022/08/17 00:10:13;;;;;;;;;;;;;;;19.40;80.06;99950.41;5030644;28;1361;-86
2022/08/17 00:12:40;;;;;;;;;;;;;;;19.11;81.08;99950.75;5032046;28;1526;-86
2022/08/17 00:15:05;;;;;;;;;;;;;;;19.15;80.14;99952.47;5034690;28;1369;-86
2022/08/17 00:17:30;;;;;;;;;;;;;;;19.02;80.52;99950.06;5034583;28;1898;-86
2022/08/17 00:19:55;;;;;;;;;;;;;;;18.71;82.33;99956.25;5035445;28;1786;-86
2022/08/17 00:22:20;;;;;;;;;;;;;;;18.78;82.95;99950.94;5028547;28;1803;-86
2022/08/17 00:24:46;;;;;;;;;;;;;;;18.84;81.62;99955.06;5028282;28;1493;-86
2022/08/17 00:27:11;;;;;;;;;;;;;;;18.98;80.89;99949.16;5031784;28;1330;-86
2022/08/17 00:29:36;;;;;;;;;;;;;;;18.99;80.58;99948.00;5033875;28;1562;-87
2022/08/17 00:32:02;;;;;;;;;;;;;;;18.97;81.41;99950.34;5034422;28;1581;-86
2022/08/17 00:34:27;;;;;;;;;;;;;;;18.78;82.09;99948.16;5031053;28;1452;-86
2022/08/17 00:36:52;;;;;;;;;;;;;;;18.87;81.64;99943.28;5035947;28;1929;-86
2022/08/17 00:39:17;;;;;;;;;;;;;;;18.84;82.28;99942.03;5036292;28;1774;-86
2022/08/17 00:41:42;;;;;;;;;;;;;;;18.75;81.32;99944.09;5035567;28;1379;-86
2022/08/17 00:44:08;;;;;;;;;;;;;;;18.74;80.87;99942.50;5032752;28;1290;-87
2022/08/17 00:46:35;;;;;;;;;;;;;;;18.59;81.35;99945.16;5032927;28;1204;-86
2022/08/17 00:49:01;;;;;;;;;;;;;;;18.69;81.96;99939.97;5027216;28;1208;-86
2022/08/17 00:51:30;;;;;;;;;;;;;;;18.85;81.63;99940.06;5025890;28;1758;-86
2022/08/17 00:53:58;;;;;;;;;;;;;;;18.87;81.47;99937.75;5028195;28;1570;-86
2022/08/17 00:56:27;;;;;;;;;;;;;;;18.85;81.35;99942.81;5034720;28;1906;-86
2022/08/17 00:58:53;;;;;;;;;;;;;;;18.80;80.86;99934.72;5035050;28;1244;-86
2022/08/17 01:01:18;;;;;;;;;;;;;;;18.79;80.34;99939.50;5035751;28;1623;-86
2022/08/17 01:03:43;;;;;;;;;;;;;;;18.56;80.74;99935.53;5034513;28;1457;-86
2022/08/17 01:06:09;;;;;;;;;;;;;;;18.60;81.36;99941.25;5028474;28;1343;-86
2022/08/17 01:08:37;;;;;;;;;;;;;;;18.52;82.09;99938.22;5031127;28;1383;-86
2022/08/17 01:11:04;;;;;;;;;;;;;;;18.46;82.72;99936.81;5028912;28;1596;-86
2022/08/17 01:13:30;;;;;;;;;;;;;;;18.38;81.75;99946.06;5030965;28;1374;-86
2022/08/17 01:15:58;;;;;;;;;;;;;;;18.34;83.03;99945.13;5030883;28;1957;-85
2022/08/17 01:18:24;;;;;;;;;;;;;;;18.30;82.71;99948.94;5034338;28;1744;-86
2022/08/17 01:20:50;;;;;;;;;;;;;;;18.32;83.31;99947.44;5017162;28;1738;-86
2022/08/17 01:23:17;;;;;;;;;;;;;;;18.47;82.31;99946.75;5042394;28;1336;-86
2022/08/17 01:25:42;;;;;;;;;;;;;;;18.36;81.56;99948.38;5033067;28;1476;-86
2022/08/17 01:28:07;;;;;;;;;;;;;;;18.31;81.78;99945.00;5030589;28;1628;-86
2022/08/17 01:30:33;;;;;;;;;;;;;;;18.30;82.65;99946.97;5027512;28;1401;-86
2022/08/17 01:32:58;;;;;;;;;;;;;;;18.10;82.96;99948.69;5034645;28;1789;-86
2022/08/17 01:35:23;;;;;;;;;;;;;;;18.31;82.59;99948.59;5037529;28;1324;-85
2022/08/17 01:37:48;;;;;;;;;;;;;;;18.30;82.29;99941.44;5036894;28;1902;-86
2022/08/17 01:40:21;;;;;;;;;;;;;;;18.17;82.19;99939.81;5035513;28;1592;-87
2022/08/17 01:43:00;;;;;;;;;;;;;;;18.29;83.05;99950.13;5031865;28;1207;-86
2022/08/17 01:45:27;;;;;;;;;;;;;;;18.15;82.96;99944.88;5027920;28;1433;-86
2022/08/17 01:47:53;;;;;;;;;;;;;;;18.03;83.33;99948.44;5038079;28;1746;-86
2022/08/17 01:50:28;;;;;;;;;;;;;;;17.91;83.66;99944.84;5036766;28;1550;-85
2022/08/17 01:52:56;;;;;;;;;;;;;;;17.95;82.64;99940.25;5038398;28;1347;-86
2022/08/17 01:55:23;;;;;;;;;;;;;;;18.05;83.21;99939.78;5028910;28;1504;-87
2022/08/17 01:57:48;;;;;;;;;;;;;;;17.96;82.57;99936.31;5037773;28;1898;-86
2022/08/17 02:00:14;;;;;;;;;;;;;;;18.01;83.46;99950.75;5036246;28;1619;-86
2022/08/17 02:02:39;;;;;;;;;;;;;;;18.09;82.05;99943.50;5036695;28;1217;-86
2022/08/17 02:05:05;;;;;;;;;;;;;;;18.09;82.20;99951.81;5037177;28;1453;-86
2022/08/17 02:07:30;;;;;;;;;;;;;;;18.16;83.02;99935.44;5026730;28;1170;-86
2022/08/17 02:09:56;;;;;;;;;;;;;;;18.13;82.38;99941.66;5033838;28;1562;-86
2022/08/17 02:12:21;;;;;;;;;;;;;;;18.11;82.19;99942.00;5027294;28;1599;-86
2022/08/17 02:14:47;;;;;;;;;;;;;;;17.95;82.41;99941.03;5035936;28;1409;-86
2022/08/17 02:17:12;;;;;;;;;;;;;;;17.81;83.28;99945.28;5030764;28;1898;-86
2022/08/17 02:19:37;;;;;;;;;;;;;;;17.79;82.77;99934.53;5028805;28;1276;-86
2022/08/17 02:22:02;;;;;;;;;;;;;;;17.81;83.43;99943.31;5030562;28;1779;-86
2022/08/17 02:24:30;;;;;;;;;;;;;;;17.86;82.33;99939.53;5039193;28;1612;-86
2022/08/17 02:26:56;;;;;;;;;;;;;;;17.84;82.57;99933.53;5040440;28;1334;-86
2022/08/17 02:29:21;;;;;;;;;;;;;;;17.74;83.25;99932.00;5033239;28;1114;-86
2022/08/17 02:31:46;;;;;;;;;;;;;;;17.78;83.74;99939.28;5036658;28;1763;-86
2022/08/17 02:34:12;;;;;;;;;;;;;;;17.68;82.47;99933.38;5030483;28;1416;-86
2022/08/17 02:36:37;;;;;;;;;;;;;;;17.81;82.99;99937.78;5033365;28;1894;-85
2022/08/17 02:39:04;;;;;;;;;;;;;;;17.86;82.90;99926.50;5036820;28;1224;-86
2022/08/17 02:41:29;;;;;;;;;;;;;;;17.77;81.70;99926.59;5034115;28;1696;-86
2022/08/17 02:43:54;;;;;;;;;;;;;;;17.76;82.27;99929.72;5027081;28;1325;-85
2022/08/17 02:46:20;;;;;;;;;;;;;;;17.84;83.01;99922.47;5036318;28;1093;-86
2022/08/17 02:48:45;;;;;;;;;;;;;;;17.63;83.81;99937.16;5036390;28;1447;-86
2022/08/17 02:51:10;;;;;;;;;;;;;;;17.54;83.60;99933.63;5035878;28;1488;-86
2022/08/17 02:53:35;;;;;;;;;;;;;;;17.59;84.15;99933.44;5034902;28;1117;-87
2022/08/17 02:56:00;;;;;;;;;;;;;;;17.60;83.49;99942.56;5034264;28;1902;-86
2022/08/17 02:58:25;;;;;;;;;;;;;;;17.31;84.52;99938.75;5034552;28;1071;-87
2022/08/17 03:00:51;;;;;;;;;;;;;;;17.29;83.59;99934.69;5035580;28;601;-86
2022/08/17 03:03:19;;;;;;;;;;;;;;;17.42;83.61;99936.38;5035553;28;1181;-86
2022/08/17 03:05:46;;;;;;;;;;;;;;;17.39;82.96;99937.84;5034195;28;1251;-87
2022/08/17 03:08:12;;;;;;;;;;;;;;;17.43;83.37;99934.41;5035531;28;825;-86
2022/08/17 03:10:37;;;;;;;;;;;;;;;17.52;83.24;99933.19;5034195;28;1524;-86
2022/08/17 03:13:02;;;;;;;;;;;;;;;17.49;84.40;99931.09;5034094;28;1193;-86
2022/08/17 03:15:30;;;;;;;;;;;;;;;17.29;83.62;99929.97;5035518;28;932;-86
2022/08/17 03:17:56;;;;;;;;;;;;;;;17.40;83.51;99924.81;5030683;28;1890;-87
2022/08/17 03:20:21;;;;;;;;;;;;;;;17.46;84.22;99929.00;5033179;28;1575;-86
2022/08/17 03:22:48;;;;;;;;;;;;;;;17.33;82.90;99935.63;5026694;28;1294;-86
2022/08/17 03:25:15;;;;;;;;;;;;;;;17.29;84.08;99942.97;5033932;28;1319;-86
2022/08/17 03:27:40;;;;;;;;;;;;;;;17.36;83.65;99932.97;5035521;28;1767;-87
2022/08/17 03:30:06;;;;;;;;;;;;;;;17.34;83.43;99932.53;5033933;28;1273;-87
2022/08/17 03:32:36;;;;;;;;;;;;;;;17.03;84.05;99927.41;5033295;28;1790;-88
2022/08/17 03:35:02;;;;;;;;;;;;;;;16.85;84.53;99928.69;5032470;28;888;-86
2022/08/17 03:37:27;;;;;;;;;;;;;;;16.87;84.52;99923.63;5029160;28;1887;-86
2022/08/17 03:39:53;;;;;;;;;;;;;;;16.92;85.03;99922.66;5033708;28;1051;-86
2022/08/17 03:42:20;;;;;;;;;;;;;;;17.09;85.24;99916.97;5033453;28;1555;-87
2022/08/17 03:44:49;;;;;;;;;;;;;;;17.11;84.46;99922.97;5033685;28;1276;-85
2022/08/17 03:58:10;;;;;;;;;;;;;;;16.95;84.44;99928.28;5015639;28;663;-86
2022/08/17 04:00:35;;;;;;;;;;;;;;;17.06;83.58;99928.72;5037164;28;1645;-85
2022/08/17 04:03:01;;;;;;;;;;;;;;;17.05;83.93;99926.28;5033136;28;1201;-86
2022/08/17 04:05:26;;;;;;;;;;;;;;;17.00;83.96;99928.09;5032931;28;1345;-86
2022/08/17 04:07:52;;;;;;;;;;;;;;;16.77;84.25;99931.50;5032958;28;1700;-86
2022/08/17 04:10:17;;;;;;;;;;;;;;;16.81;85.55;99922.22;5032864;28;1796;-87
2022/08/17 04:12:47;;;;;;;;;;;;;;;16.75;85.08;99931.88;5033097;28;1301;-86
2022/08/17 04:15:12;;;;;;;;;;;;;;;16.76;85.56;99935.44;5035180;28;1062;-86
2022/08/17 04:17:38;;;;;;;;;;;;;;;16.81;85.11;99926.94;5034486;28;1953;-86
2022/08/17 04:20:03;;;;;;;;;;;;;;;16.81;84.36;99929.72;5034121;28;1909;-86
2022/08/17 04:22:28;;;;;;;;;;;;;;;16.88;85.00;99941.03;5033942;28;1321;-87
2022/08/17 04:24:54;;;;;;;;;;;;;;;16.81;85.24;99940.75;5035476;28;904;-87
2022/08/17 04:27:19;;;;;;;;;;;;;;;16.90;84.80;99933.22;5033540;28;855;-86
2022/08/17 04:29:44;;;;;;;;;;;;;;;16.88;85.21;99943.81;5033016;28;1250;-87
2022/08/17 04:32:09;;;;;;;;;;;;;;;16.83;84.71;99949.53;5032866;28;1225;-87
2022/08/17 04:34:35;;;;;;;;;;;;;;;16.85;85.92;99955.50;5032718;28;976;-87
2022/08/17 04:37:00;;;;;;;;;;;;;;;16.91;85.95;99955.00;5032692;28;1906;-87
2022/08/17 04:39:25;;;;;;;;;;;;;;;16.94;85.87;99954.31;5033761;28;1180;-86
2022/08/17 04:42:06;;;;;;;;;;;;;;;17.02;85.77;99960.94;5032659;28;1305;-87
2022/08/17 04:44:31;;;;;;;;;;;;;;;16.84;85.88;99949.19;5032750;28;1336;-86
2022/08/17 04:46:57;;;;;;;;;;;;;;;16.94;86.13;99959.84;5032451;28;1211;-87
2022/08/17 04:49:22;;;;;;;;;;;;;;;16.87;86.37;99965.09;5032341;28;1575;-87
2022/08/17 04:51:47;;;;;;;;;;;;;;;16.83;86.10;99955.88;5032686;28;1300;-86
2022/08/17 04:54:14;;;;;;;;;;;;;;;16.88;85.82;99963.97;5024573;28;1361;-87
2022/08/17 04:56:39;;;;;;;;;;;;;;;16.95;87.13;99963.41;5032444;28;1902;-86
2022/08/17 04:59:07;;;;;;;;;;;;;;;16.96;87.17;99956.75;5032437;28;1125;-86
2022/08/17 05:01:34;;;;;;;;;;;;;;;17.00;86.86;99958.53;5032578;28;1214;-87
2022/08/17 05:04:01;;;;;;;;;;;;;;;16.95;86.76;99968.94;5032307;28;1266;-87
2022/08/17 05:06:27;;;;;;;;;;;;;;;17.02;86.39;99974.75;5032481;28;1168;-87
2022/08/17 05:08:53;;;;;;;;;;;;;;;17.07;86.26;99976.53;5032355;28;1302;-88
2022/08/17 05:11:18;;;;;;;;;;;;;;;17.08;87.14;99978.16;5031791;28;1266;-86
2022/08/17 05:13:43;;;;;;;;;;;;;;;16.90;87.54;99991.28;5033557;28;1431;-85
2022/08/17 05:16:09;;;;;;;;;;;;;;;16.96;88.08;99990.75;5033057;28;1906;-86
2022/08/17 05:18:35;;;;;;;;;;;;;;;17.11;87.43;99992.09;5033259;28;1340;-87
2022/08/17 05:21:01;;;;;;;;;;;;;;;17.10;87.77;99986.91;5024959;28;1396;-87
2022/08/17 05:23:26;;;;;;;;;;;;;;;16.97;88.79;99986.84;5030668;28;1284;-87
2022/08/17 05:25:56;;;;;;;;;;;;;;;17.02;89.84;99994.09;5015425;28;1483;-87
2022/08/17 05:28:25;;;;;;;;;;;;;;;17.16;88.85;99989.16;5033297;28;1712;-88
2022/08/17 05:30:51;;;;;;;;;;;;;;;17.13;89.84;99989.00;5032805;28;1479;-87
2022/08/17 05:33:18;;;;;;;;;;;;;;;17.11;89.35;99988.50;5028353;28;1524;-87
2022/08/17 05:35:45;;;;;;;;;;;;;;;17.24;88.78;99988.28;5032175;28;1212;-87
2022/08/17 05:38:11;;;;;;;;;;;;;;;17.26;89.76;99990.69;5028640;28;1762;-86
2022/08/17 05:40:37;;;;;;;;;;;;;;;17.29;90.38;99984.47;5031461;28;1574;-86
2022/08/17 05:43:16;;;;;;;;;;;;;;;17.44;89.58;99983.06;5023361;28;1523;-87
2022/08/17 05:45:45;;;;;;;;;;;;;;;17.41;89.53;99984.56;5030026;28;1402;-87
2022/08/17 05:48:10;;;;;;;;;;;;;;;17.53;88.84;99989.31;5033244;28;1438;-86
2022/08/17 05:50:56;;;;;;;;;;;;;;;17.62;89.05;99988.13;5032695;28;1528;-87
2022/08/17 05:53:29;;;;;;;;;;;;;;;17.67;88.38;99996.22;5004111;28;1551;-86
2022/08/17 05:56:10;;;;;;;;;;;;;;;17.71;89.49;99988.84;5033460;28;1961;-87
2022/08/17 05:58:38;;;;;;;;;;;;;;;17.73;89.61;99986.56;5034673;28;1179;-87
2022/08/17 06:01:27;;;;;;;;;;;;;;;17.75;89.18;99984.25;5031956;28;1823;-86
2022/08/17 06:04:12;;;;;;;;;;;;;;;17.78;90.02;99986.34;5012684;28;901;-86
2022/08/17 06:06:50;;;;;;;;;;;;;;;17.80;89.98;99987.94;5012682;28;1216;-86
2022/08/17 06:09:34;;;;;;;;;;;;;;;17.82;90.65;99985.66;5012855;28;1710;-86
2022/08/17 06:12:20;;;;;;;;;;;;;;;17.87;91.12;99988.19;5029130;28;1404;-87
2022/08/17 06:15:00;;;;;;;;;;;;;;;17.84;91.06;99989.72;5029085;28;1212;-87
2022/08/17 06:17:26;;;;;;;;;;;;;;;17.88;90.71;99981.53;5028918;28;1969;-87
2022/08/17 06:19:54;;;;;;;;;;;;;;;17.89;91.38;99983.13;5020054;28;1270;-87
2022/08/17 06:22:22;;;;;;;;;;;;;;;17.94;90.11;99980.16;5033445;28;1325;-87
2022/08/17 06:24:47;;;;;;;;;;;;;;;18.02;89.28;99984.81;5029662;28;924;-87
2022/08/17 06:27:17;;;;;;;;;;;;;;;18.03;89.31;99980.88;5032308;28;1376;-87
2022/08/17 06:29:55;;;;;;;;;;;;;;;18.02;88.50;99982.84;5035666;28;1279;-87
2022/08/17 06:32:21;;;;;;;;;;;;;;;18.05;89.01;99978.56;5035428;28;1332;-87
2022/08/17 06:34:46;;;;;;;;;;;;;;;18.14;89.26;99976.50;5036295;28;1327;-87
2022/08/17 06:37:12;;;;;;;;;;;;;;;18.17;88.22;99986.09;5035587;28;1960;-88
2022/08/17 06:39:49;;;;;;;;;;;;;;;18.22;89.27;99977.56;5035420;28;1803;-88
2022/08/17 06:42:28;;;;;;;;;;;;;;;18.23;88.67;99977.22;5036778;28;1230;-87
2022/08/17 06:45:06;;;;;;;;;;;;;;;18.32;88.43;99980.69;5035279;28;1484;-88
2022/08/17 06:47:48;;;;;;;;;;;;;;;18.40;88.52;99978.97;5035703;28;1172;-86
2022/08/17 06:50:19;;;;;;;;;;;;;;;18.47;89.47;99981.97;5034936;28;1522;-86
2022/08/17 06:52:50;;;;;;;;;;;;;;;18.51;88.79;99986.47;5041955;28;1385;-87
2022/08/17 06:55:20;;;;;;;;;;;;;;;18.54;88.17;99982.22;5035884;28;1839;-88
2022/08/17 06:57:48;;;;;;;;;;;;;;;18.64;87.77;99984.53;5035719;28;1890;-87
2022/08/17 07:00:19;;;;;;;;;;;;;;;18.71;87.73;99981.22;5035190;28;1615;-87
2022/08/17 07:03:05;;;;;;;;;;;;;;;18.78;87.08;99982.25;5024805;28;1198;-87
2022/08/17 07:05:49;;;;;;;;;;;;;;;18.85;87.44;99992.75;5036092;28;1385;-87
2022/08/17 07:08:23;;;;;;;;;;;;;;;18.91;87.38;99980.25;5032396;28;1386;-87
2022/08/17 07:10:55;;;;;;;;;;;;;;;18.97;87.83;99981.63;5029843;28;1404;-86
2022/08/17 07:13:29;;;;;;;;;;;;;;;18.98;86.74;99972.13;5032362;28;1189;-87
2022/08/17 07:16:03;;;;;;;;;;;;;;;19.01;86.68;99973.41;5034503;28;1961;-88
2022/08/17 07:18:28;;;;;;;;;;;;;;;19.03;87.45;99969.16;5033977;28;1499;-87
2022/08/17 07:20:57;;;;;;;;;;;;;;;19.04;87.07;99973.53;5034277;28;1279;-87
2022/08/17 07:23:29;;;;;;;;;;;;;;;19.07;87.00;99972.00;5033968;28;1295;-88
2022/08/17 07:26:02;;;;;;;;;;;;;;;19.13;86.62;99967.84;5035507;28;1066;-87
2022/08/17 07:28:28;;;;;;;;;;;;;;;19.20;85.86;99971.66;5035402;28;817;-87
2022/08/17 07:30:53;;;;;;;;;;;;;;;19.31;86.11;99977.50;5033924;28;1696;-85
2022/08/17 07:33:26;;;;;;;;;;;;;;;19.36;86.34;99982.81;5033966;28;1177;-86
2022/08/17 07:35:51;;;;;;;;;;;;;;;19.41;86.56;99965.91;5034060;28;1956;-86
2022/08/17 07:38:22;;;;;;;;;;;;;;;19.49;85.18;99975.28;5034091;28;1314;-86
2022/08/17 07:41:03;;;;;;;;;;;;;;;19.55;86.33;99971.91;5033700;28;1783;-86
